createdAt,value
2018-04-14T00:00:35.715Z,83.61
2018-04-14T00:03:04.777Z,84.74
2018-04-14T00:05:33.059Z,83.97
2018-04-14T00:08:01.427Z,84.15
2018-04-14T00:10:29.705Z,84.97
2018-04-14T00:12:57.985Z,84.61
2018-04-14T00:15:26.243Z,82.35
2018-04-14T00:17:54.507Z,83.01
2018-04-14T00:20:22.795Z,81.71
2018-04-14T00:22:51.059Z,82.60
2018-04-14T00:25:19.436Z,82.61
2018-04-14T00:27:48.484Z,81.06
2018-04-14T00:30:16.842Z,78.03
2018-04-14T00:32:45.966Z,81.00
2018-04-14T00:35:14.230Z,79.56
2018-04-14T00:37:43.272Z,78.64
2018-04-14T00:40:11.543Z,75.79
2018-04-14T00:42:39.824Z,76.45
2018-04-14T00:45:08.892Z,77.28
2018-04-14T00:47:37.158Z,78.18
2018-04-14T00:50:05.440Z,77.00
2018-04-14T00:52:33.721Z,73.03
2018-04-14T00:55:01.975Z,72.24
2018-04-14T00:57:31.023Z,76.50
2018-04-14T00:59:59.301Z,72.85
2018-04-14T01:02:27.589Z,73.11
2018-04-14T01:04:55.879Z,73.37
2018-04-14T01:07:24.136Z,77.62
2018-04-14T01:09:52.406Z,77.04
2018-04-14T01:12:20.668Z,78.50
2018-04-14T01:14:48.937Z,79.27
2018-04-14T01:17:17.211Z,77.32
2018-04-14T01:19:46.252Z,79.49
2018-04-14T01:22:14.516Z,81.18
2018-04-14T01:24:43.535Z,76.97
2018-04-14T01:27:11.812Z,77.82
2018-04-14T01:29:40.881Z,80.93
2018-04-14T01:32:09.152Z,81.75
2018-04-14T01:34:37.416Z,79.29
2018-04-14T01:37:05.691Z,80.46
2018-04-14T01:39:34.714Z,80.31
2018-04-14T01:42:03.001Z,80.45
2018-04-14T01:44:31.278Z,82.49
2018-04-14T01:47:00.316Z,80.84
2018-04-14T01:49:28.607Z,80.53
2018-04-14T01:51:56.889Z,80.25
2018-04-14T01:54:25.146Z,77.80
2018-04-14T01:56:55.110Z,75.91
2018-04-14T01:59:23.376Z,78.05
2018-04-14T02:01:51.635Z,76.00
2018-04-14T02:04:19.894Z,76.83
2018-04-14T02:06:48.192Z,79.15
2018-04-14T02:09:16.453Z,79.66
2018-04-14T02:11:44.719Z,75.67
2018-04-14T02:14:13.743Z,77.15
2018-04-14T02:16:42.029Z,75.39
2018-04-14T02:19:10.304Z,77.87
2018-04-14T02:21:39.335Z,78.15
2018-04-14T02:24:07.610Z,75.75
2018-04-14T02:26:35.883Z,78.98
2018-04-14T02:29:04.925Z,78.04
2018-04-14T02:31:33.226Z,75.85
2018-04-14T02:34:01.492Z,77.95
2018-04-14T02:36:29.765Z,77.40
2018-04-14T02:38:58.783Z,79.99
2018-04-14T02:41:27.061Z,81.20
2018-04-14T02:43:56.091Z,81.01
2018-04-14T02:46:24.358Z,81.57
2018-04-14T02:48:53.403Z,81.48
2018-04-14T02:51:21.684Z,82.38
2018-04-14T02:53:49.946Z,82.05
2018-04-14T02:56:19.004Z,82.71
2018-04-14T02:58:47.268Z,83.25
2018-04-14T03:01:15.528Z,83.67
2018-04-14T03:03:44.584Z,83.66
2018-04-14T03:06:12.857Z,83.60
2018-04-14T03:08:41.128Z,83.60
2018-04-14T03:11:10.183Z,84.18
2018-04-14T03:13:38.466Z,84.42
2018-04-14T03:16:06.716Z,83.59
2018-04-14T03:18:35.760Z,84.45
2018-04-14T03:21:04.016Z,83.57
2018-04-14T03:23:32.284Z,83.62
2018-04-14T03:26:00.581Z,83.92
2018-04-14T03:28:29.603Z,83.52
2018-04-14T03:30:57.891Z,84.27
2018-04-14T03:33:26.963Z,83.73
2018-04-14T03:35:55.266Z,84.37
2018-04-14T03:38:23.540Z,83.98
2018-04-14T03:40:51.816Z,84.32
2018-04-14T03:43:20.071Z,84.92
2018-04-14T03:45:48.361Z,85.17
2018-04-14T03:48:16.658Z,84.42
2018-04-14T03:50:45.686Z,84.87
2018-04-14T03:53:13.965Z,83.49
2018-04-14T03:55:42.256Z,83.47
2018-04-14T03:58:10.559Z,83.68
2018-04-14T04:00:38.819Z,82.22
2018-04-14T04:03:07.859Z,81.47
2018-04-14T04:05:36.127Z,81.20
2018-04-14T04:08:04.393Z,80.74
2018-04-14T04:10:33.433Z,80.32
2018-04-14T04:13:01.717Z,79.98
2018-04-14T04:15:29.980Z,80.04
2018-04-14T04:17:58.289Z,80.21
2018-04-14T04:20:56.747Z,80.08
2018-04-14T04:23:42.656Z,80.20
2018-04-14T04:26:10.936Z,81.05
2018-04-14T04:28:39.207Z,80.50
2018-04-14T04:31:08.303Z,80.30
2018-04-14T04:33:36.568Z,79.86
2018-04-14T04:36:04.836Z,79.54
2018-04-14T04:38:33.107Z,79.96
2018-04-14T04:41:01.415Z,79.47
2018-04-14T04:43:29.681Z,79.30
2018-04-14T04:45:57.966Z,79.16
2018-04-14T04:48:26.328Z,79.39
2018-04-14T04:50:54.593Z,79.61
2018-04-14T04:53:23.636Z,79.51
2018-04-14T04:55:51.897Z,79.60
2018-04-14T04:58:20.925Z,79.33
2018-04-14T05:00:49.216Z,80.89
2018-04-14T05:03:17.479Z,80.25
2018-04-14T05:05:46.534Z,79.49
2018-04-14T05:08:14.806Z,79.37
2018-04-14T05:10:43.072Z,79.43
2018-04-14T05:13:12.115Z,80.51
2018-04-14T05:15:40.393Z,79.49
2018-04-14T05:18:08.680Z,79.53
2018-04-14T05:20:36.935Z,78.85
2018-04-14T05:23:05.993Z,81.12
2018-04-14T05:25:35.265Z,80.47
2018-04-14T05:28:04.299Z,79.91
2018-04-14T05:30:32.583Z,79.70
2018-04-14T05:33:00.862Z,78.81
2018-04-14T05:35:29.144Z,78.74
2018-04-14T05:37:58.196Z,78.34
2018-04-14T05:40:26.489Z,77.40
2018-04-14T05:42:54.775Z,76.76
2018-04-14T05:45:23.067Z,76.62
2018-04-14T05:47:51.330Z,76.38
2018-04-14T05:50:19.587Z,75.46
2018-04-14T05:52:48.632Z,73.84
2018-04-14T05:55:16.892Z,72.63
2018-04-14T05:57:45.923Z,72.92
2018-04-14T06:00:14.257Z,72.07
2018-04-14T06:02:42.483Z,72.00
2018-04-14T06:05:11.521Z,72.75
2018-04-14T06:07:39.819Z,72.76
2018-04-14T06:10:08.084Z,73.19
2018-04-14T06:12:36.381Z,72.83
2018-04-14T06:15:04.655Z,72.90
2018-04-14T06:17:33.692Z,72.75
2018-04-14T06:20:01.953Z,72.16
2018-04-14T06:22:30.995Z,74.29
2018-04-14T06:24:59.256Z,71.06
2018-04-14T06:27:27.515Z,70.02
2018-04-14T06:29:55.802Z,68.58
2018-04-14T06:32:24.064Z,68.71
2018-04-14T06:34:52.321Z,67.62
2018-04-14T06:37:20.604Z,66.47
2018-04-14T06:39:49.653Z,65.76
2018-04-14T06:42:17.912Z,64.28
2018-04-14T06:44:46.180Z,64.51
2018-04-14T06:47:15.206Z,63.06
2018-04-14T06:49:44.246Z,64.47
2018-04-14T06:52:12.525Z,60.93
2018-04-14T06:54:40.809Z,58.40
2018-04-14T06:57:09.084Z,55.05
2018-04-14T06:59:37.364Z,53.61
2018-04-14T07:02:06.387Z,52.33
2018-04-14T07:04:34.667Z,52.97
2018-04-14T07:07:03.700Z,52.46
2018-04-14T07:09:31.960Z,52.91
2018-04-14T07:12:00.994Z,54.61
2018-04-14T07:14:29.276Z,55.86
2018-04-14T07:16:57.548Z,56.81
2018-04-14T07:19:25.954Z,56.00
2018-04-14T07:21:54.217Z,53.69
2018-04-14T07:24:23.262Z,52.29
2018-04-14T07:26:51.518Z,50.51
2018-04-14T07:29:20.554Z,47.52
2018-04-14T07:31:48.803Z,44.84
2018-04-14T07:34:17.069Z,44.56
2018-04-14T07:36:45.353Z,43.86
2018-04-14T07:39:13.633Z,43.52
2018-04-14T07:41:41.912Z,42.41
2018-04-14T07:44:10.190Z,42.45
2018-04-14T07:46:38.465Z,42.61
2018-04-14T07:49:07.500Z,43.95
2018-04-14T07:51:35.803Z,44.80
2018-04-14T07:54:04.083Z,46.24
2018-04-14T07:56:33.064Z,47.23
2018-04-14T07:59:01.352Z,47.54
2018-04-14T08:01:30.391Z,47.39
2018-04-14T08:03:58.670Z,47.12
2018-04-14T08:06:26.958Z,46.94
2018-04-14T08:08:55.221Z,46.31
2018-04-14T08:11:24.240Z,46.84
2018-04-14T08:13:52.511Z,46.51
2018-04-14T08:16:21.540Z,46.33
2018-04-14T08:18:49.814Z,46.84
2018-04-14T08:21:18.083Z,45.84
2018-04-14T08:23:46.339Z,46.08
2018-04-14T08:26:14.602Z,45.06
2018-04-14T08:28:42.870Z,42.69
2018-04-14T08:31:11.905Z,42.13
2018-04-14T08:33:40.187Z,42.34
2018-04-14T08:36:08.481Z,42.59
2018-04-14T08:38:36.751Z,43.64
2018-04-14T08:41:05.774Z,46.06
2018-04-14T08:43:34.107Z,44.71
2018-04-14T08:46:02.356Z,44.62
2018-04-14T08:48:30.599Z,45.06
2018-04-14T08:50:58.890Z,45.50
2018-04-14T08:53:27.145Z,45.44
2018-04-14T08:55:55.421Z,44.97
2018-04-14T08:58:23.699Z,44.09
2018-04-14T09:00:52.015Z,43.38
2018-04-14T09:03:20.300Z,41.35
2018-04-14T09:05:48.579Z,38.38
2018-04-14T09:08:16.836Z,36.53
2018-04-14T09:10:45.877Z,36.66
2018-04-14T09:13:14.162Z,35.62
2018-04-14T09:15:42.456Z,35.97
2018-04-14T09:18:10.728Z,35.98
2018-04-14T09:20:39.832Z,36.21
2018-04-14T09:23:08.864Z,37.26
2018-04-14T09:25:37.133Z,39.11
2018-04-14T09:28:06.203Z,38.40
2018-04-14T09:30:34.465Z,38.39
2018-04-14T09:33:02.724Z,37.68
2018-04-14T09:35:31.771Z,36.37
2018-04-14T09:38:01.441Z,34.86
2018-04-14T09:40:29.809Z,34.18
2018-04-14T09:42:58.146Z,33.22
2018-04-14T09:45:26.379Z,30.70
2018-04-14T09:47:54.632Z,31.36
2018-04-14T09:50:22.905Z,31.28
2018-04-14T09:52:51.933Z,31.45
2018-04-14T09:55:20.183Z,30.15
2018-04-14T09:57:48.464Z,30.02
2018-04-14T10:00:22.228Z,30.83
2018-04-14T10:02:50.508Z,31.17
2018-04-14T10:05:19.528Z,32.04
2018-04-14T10:07:47.813Z,31.82
2018-04-14T10:10:16.843Z,32.99
2018-04-14T10:12:45.118Z,34.54
2018-04-14T10:15:13.379Z,39.56
2018-04-14T10:17:41.659Z,38.10
2018-04-14T10:20:09.933Z,38.25
2018-04-14T10:22:38.244Z,38.71
2018-04-14T10:25:06.526Z,39.27
2018-04-14T10:27:34.948Z,40.75
2018-04-14T10:30:03.251Z,42.96
2018-04-14T10:32:31.542Z,43.56
2018-04-14T10:34:59.795Z,43.68
2018-04-14T10:37:28.111Z,44.02
2018-04-14T10:39:56.380Z,44.75
2018-04-14T10:42:25.411Z,44.68
2018-04-14T10:44:53.705Z,44.16
2018-04-14T10:47:22.737Z,44.04
2018-04-14T10:49:51.010Z,42.18
2018-04-14T10:52:19.281Z,39.61
2018-04-14T10:54:48.320Z,38.58
2018-04-14T10:57:16.598Z,37.57
2018-04-14T10:59:44.874Z,36.94
2018-04-14T11:02:13.940Z,37.37
2018-04-14T11:04:42.467Z,37.85
2018-04-14T11:07:11.532Z,38.72
2018-04-14T11:09:39.869Z,38.21
2018-04-14T11:12:08.904Z,39.25
2018-04-14T11:14:37.168Z,38.68
2018-04-14T11:17:07.033Z,38.65
2018-04-14T11:19:35.339Z,39.21
2018-04-14T11:22:03.595Z,37.97
2018-04-14T11:24:31.903Z,38.77
2018-04-14T11:27:00.164Z,38.67
2018-04-14T11:29:28.444Z,41.38
2018-04-14T11:31:57.495Z,40.81
2018-04-14T11:34:25.772Z,41.32
2018-04-14T11:36:54.077Z,40.03
2018-04-14T11:39:22.343Z,40.00
2018-04-14T11:41:50.618Z,39.44
2018-04-14T11:44:19.667Z,40.81
2018-04-14T11:46:47.931Z,40.18
2018-04-14T11:49:16.203Z,41.20
2018-04-14T11:51:45.225Z,41.27
2018-04-14T11:54:13.503Z,41.41
2018-04-14T11:56:42.533Z,42.76
2018-04-14T11:59:10.824Z,41.19
2018-04-14T12:01:39.126Z,40.96
2018-04-14T12:04:07.385Z,38.99
2018-04-14T12:06:36.412Z,38.24
2018-04-14T12:09:04.699Z,37.84
2018-04-14T12:11:33.002Z,38.60
2018-04-14T12:14:01.305Z,37.01
2018-04-14T12:16:31.951Z,38.70
2018-04-14T12:19:00.207Z,36.57
2018-04-14T12:21:28.491Z,36.78
2018-04-14T12:23:57.524Z,36.85
2018-04-14T12:26:25.778Z,37.20
2018-04-14T12:28:54.807Z,37.28
2018-04-14T12:31:23.075Z,36.72
2018-04-14T12:36:52.276Z,37.81
2018-04-14T12:39:20.851Z,38.34
2018-04-14T12:41:49.166Z,38.92
2018-04-14T12:44:17.399Z,39.55
2018-04-14T12:46:46.435Z,40.58
2018-04-14T12:49:14.689Z,40.22
2018-04-14T12:51:43.732Z,40.15
2018-04-14T12:54:12.463Z,39.37
2018-04-14T12:56:40.850Z,40.25
2018-04-14T12:59:09.119Z,40.77
2018-04-14T13:01:37.394Z,40.86
2018-04-14T13:04:05.651Z,40.76
2018-04-14T13:06:33.915Z,39.95
2018-04-14T13:09:02.185Z,40.41
2018-04-14T13:11:30.444Z,39.55
2018-04-14T13:13:58.743Z,39.14
2018-04-14T13:16:26.991Z,39.36
2018-04-14T13:18:55.250Z,38.96
2018-04-14T13:21:23.511Z,37.94
2018-04-14T13:23:51.777Z,37.68
2018-04-14T13:26:20.821Z,36.91
2018-04-14T13:28:49.088Z,37.60
2018-04-14T13:31:18.107Z,38.39
2018-04-14T13:33:46.382Z,38.84
2018-04-14T13:36:15.503Z,37.82
2018-04-14T13:38:44.803Z,37.83
2018-04-14T13:41:14.850Z,36.86
2018-04-14T13:43:43.948Z,37.87
2018-04-14T13:46:12.605Z,36.76
2018-04-14T13:48:40.898Z,37.22
2018-04-14T13:51:09.196Z,37.42
2018-04-14T13:53:37.456Z,36.89
2018-04-14T13:56:05.721Z,37.04
2018-04-14T13:58:34.010Z,37.05
2018-04-14T14:01:02.359Z,37.53
2018-04-14T14:03:31.518Z,37.19
2018-04-14T14:05:59.824Z,36.46
2018-04-14T14:08:28.089Z,37.68
2018-04-14T14:10:56.339Z,36.61
2018-04-14T14:13:24.632Z,38.19
2018-04-14T14:15:52.889Z,38.24
2018-04-14T14:18:21.356Z,37.70
2018-04-14T14:20:49.631Z,38.55
2018-04-14T14:23:17.935Z,38.80
2018-04-14T14:25:46.199Z,38.13
2018-04-14T14:28:15.451Z,37.19
2018-04-14T14:30:43.700Z,38.29
2018-04-14T14:33:11.963Z,38.24
2018-04-14T14:35:40.253Z,38.25
2018-04-14T14:38:08.520Z,38.82
2018-04-14T14:40:36.871Z,39.29
2018-04-14T14:43:05.912Z,39.86
2018-04-14T14:45:34.172Z,39.95
2018-04-14T14:48:03.191Z,40.20
2018-04-14T14:50:31.464Z,40.25
2018-04-14T14:53:00.511Z,40.43
2018-04-14T14:55:28.783Z,40.83
2018-04-14T14:57:57.064Z,40.59
2018-04-14T15:00:25.362Z,40.39
2018-04-14T15:02:53.614Z,41.07
2018-04-14T15:05:22.669Z,41.52
2018-04-14T15:07:51.948Z,41.66
2018-04-14T15:10:20.986Z,40.94
2018-04-14T15:12:50.980Z,41.87
2018-04-14T15:15:19.313Z,41.96
2018-04-14T15:17:47.568Z,42.35
2018-04-14T15:20:16.636Z,41.67
2018-04-14T15:22:45.027Z,42.56
2018-04-14T15:25:13.329Z,41.21
2018-04-14T15:27:41.564Z,41.20
2018-04-14T15:30:09.830Z,41.41
2018-04-14T15:32:38.081Z,40.36
2018-04-14T15:35:06.359Z,40.54
2018-04-14T15:37:34.616Z,40.51
2018-04-14T15:40:03.639Z,41.19
2018-04-14T15:42:31.936Z,41.06
2018-04-14T15:45:00.199Z,41.78
2018-04-14T15:47:29.231Z,42.28
2018-04-14T15:49:57.499Z,42.06
2018-04-14T15:52:26.524Z,42.68
2018-04-14T15:54:54.780Z,42.75
2018-04-14T15:57:23.056Z,42.78
2018-04-14T15:59:51.312Z,43.26
2018-04-14T16:02:19.595Z,43.16
2018-04-14T16:04:47.880Z,43.52
2018-04-14T16:07:16.128Z,43.30
2018-04-14T16:09:44.398Z,43.74
2018-04-14T16:12:12.667Z,43.67
2018-04-14T16:14:40.928Z,43.67
2018-04-14T16:17:09.280Z,43.25
2018-04-14T16:19:37.488Z,43.82
2018-04-14T16:22:06.508Z,43.51
2018-04-14T16:24:34.764Z,43.75
2018-04-14T16:27:03.837Z,43.88
2018-04-14T16:29:32.105Z,43.83
2018-04-14T16:32:00.383Z,44.45
2018-04-14T16:34:29.411Z,44.62
2018-04-14T16:36:57.683Z,44.39
2018-04-14T16:39:26.725Z,44.61
2018-04-14T16:41:54.996Z,45.66
2018-04-14T16:44:23.251Z,44.07
2018-04-14T16:46:52.343Z,44.41
2018-04-14T16:49:20.686Z,45.16
2018-04-14T16:51:50.841Z,45.37
2018-04-14T16:54:19.099Z,44.82
2018-04-14T16:56:47.380Z,45.05
2018-04-14T16:59:16.417Z,44.81
2018-04-14T17:01:44.723Z,45.25
2018-04-14T17:04:13.003Z,45.63
2018-04-14T17:06:41.279Z,45.27
2018-04-14T17:09:09.573Z,45.45
2018-04-14T17:11:37.858Z,45.29
2018-04-14T17:14:06.116Z,45.77
2018-04-14T17:16:35.134Z,45.63
2018-04-14T17:19:04.212Z,45.27
2018-04-14T17:21:32.494Z,45.60
2018-04-14T17:24:01.517Z,46.49
2018-04-14T17:26:29.829Z,46.18
2018-04-14T17:28:58.891Z,46.50
2018-04-14T17:31:27.148Z,46.52
2018-04-14T17:33:55.445Z,46.77
2018-04-14T17:36:23.729Z,47.31
2018-04-14T17:38:52.667Z,46.88
2018-04-14T17:41:20.971Z,47.16
2018-04-14T17:43:49.242Z,47.94
2018-04-14T17:46:17.504Z,46.51
2018-04-14T17:48:45.773Z,47.39
2018-04-14T17:51:14.815Z,47.62
2018-04-14T17:53:43.106Z,47.61
2018-04-14T17:56:12.118Z,48.03
2018-04-14T17:58:40.388Z,47.50
2018-04-14T18:01:08.645Z,48.06
2018-04-14T18:03:37.721Z,47.96
2018-04-14T18:06:05.980Z,48.27
2018-04-14T18:08:34.237Z,47.39
2018-04-14T18:11:03.276Z,47.51
2018-04-14T18:13:31.573Z,47.56
2018-04-14T18:15:59.827Z,47.94
2018-04-14T18:18:28.104Z,48.59
2018-04-14T18:20:57.144Z,48.54
2018-04-14T18:23:25.418Z,48.01
2018-04-14T18:25:54.459Z,48.52
2018-04-14T18:28:22.731Z,47.95
2018-04-14T18:30:50.991Z,48.42
2018-04-14T18:33:20.032Z,48.42
2018-04-14T18:35:48.283Z,48.42
2018-04-14T18:38:17.323Z,47.90
2018-04-14T18:40:45.599Z,47.96
2018-04-14T18:43:14.654Z,48.37
2018-04-14T18:45:43.033Z,48.26
2018-04-14T18:48:11.342Z,48.19
2018-04-14T18:50:39.664Z,48.79
2018-04-14T18:53:07.926Z,49.15
2018-04-14T18:55:36.203Z,48.92
2018-04-14T18:58:04.489Z,49.21
2018-04-14T19:00:32.740Z,49.29
2018-04-14T19:03:01.012Z,48.92
2018-04-14T19:05:30.048Z,49.26
2018-04-14T19:07:58.321Z,49.30
2018-04-14T19:10:27.368Z,49.13
2018-04-14T19:12:55.887Z,49.28
2018-04-14T19:15:24.148Z,49.67
2018-04-14T19:17:52.498Z,49.39
2018-04-14T19:20:20.737Z,49.47
2018-04-14T19:22:49.009Z,49.71
2018-04-14T19:25:17.280Z,50.02
2018-04-14T19:27:46.303Z,50.37
2018-04-14T19:30:15.374Z,50.75
2018-04-14T19:32:44.469Z,50.59
2018-04-14T19:35:12.747Z,50.47
2018-04-14T19:37:41.066Z,51.04
2018-04-14T19:40:09.343Z,50.85
2018-04-14T19:42:37.612Z,50.69
2018-04-14T19:45:05.877Z,51.47
2018-04-14T19:47:34.178Z,51.26
2018-04-14T19:50:02.440Z,51.41
2018-04-14T19:52:30.702Z,51.02
2018-04-14T19:54:58.982Z,51.32
2018-04-14T19:57:27.256Z,51.75
2018-04-14T19:59:55.524Z,52.09
2018-04-14T20:02:23.813Z,52.49
2018-04-14T20:04:52.087Z,51.86
2018-04-14T20:07:20.413Z,52.42
2018-04-14T20:09:48.681Z,52.47
2018-04-14T20:12:16.949Z,52.58
2018-04-14T20:14:45.991Z,52.62
2018-04-14T20:17:14.276Z,52.81
2018-04-14T20:19:42.602Z,53.17
2018-04-14T20:22:10.815Z,53.37
2018-04-14T20:24:39.929Z,53.63
2018-04-14T20:27:08.948Z,53.80
2018-04-14T20:29:37.211Z,54.03
2018-04-14T20:32:06.268Z,54.28
2018-04-14T20:34:34.542Z,54.08
2018-04-14T20:37:02.817Z,54.55
2018-04-14T20:39:31.856Z,54.46
2018-04-14T20:42:00.125Z,54.11
2018-04-14T20:44:28.399Z,54.23
2018-04-14T20:46:57.520Z,53.91
2018-04-14T20:49:25.779Z,54.19
2018-04-14T20:51:54.054Z,53.95
2018-04-14T20:54:22.323Z,54.01
2018-04-14T20:56:50.619Z,54.24
2018-04-14T20:59:19.407Z,54.45
2018-04-14T21:01:47.684Z,54.73
2018-04-14T21:04:15.954Z,54.63
2018-04-14T21:06:44.990Z,54.98
2018-04-14T21:09:13.291Z,55.34
2018-04-14T21:11:41.556Z,55.01
2018-04-14T21:14:09.832Z,55.71
2018-04-14T21:16:38.883Z,55.49
2018-04-14T21:19:07.145Z,55.76
2018-04-14T21:21:35.406Z,55.83
2018-04-14T21:24:04.457Z,56.37
2018-04-14T21:26:32.712Z,56.38
2018-04-14T21:29:01.738Z,56.18
2018-04-14T21:31:30.035Z,56.22
2018-04-14T21:33:58.292Z,56.16
2018-04-14T21:36:27.425Z,56.11
2018-04-14T21:38:55.841Z,56.37
2018-04-14T21:41:24.129Z,56.51
2018-04-14T21:43:52.428Z,56.55
2018-04-14T21:46:20.714Z,57.02
2018-04-14T21:48:48.967Z,57.29
2018-04-14T21:51:17.994Z,57.13
2018-04-14T21:53:46.286Z,57.57
2018-04-14T21:56:14.554Z,57.47
2018-04-14T21:58:44.197Z,57.89
2018-04-14T22:01:15.147Z,57.88
2018-04-14T22:03:43.415Z,57.46
2018-04-14T22:06:11.800Z,58.15
2018-04-14T22:08:40.853Z,58.21
2018-04-14T22:11:09.122Z,58.50
2018-04-14T22:13:37.379Z,57.95
2018-04-14T22:16:05.668Z,57.92
2018-04-14T22:18:33.933Z,57.67
2018-04-14T22:21:02.190Z,57.55
2018-04-14T22:23:30.481Z,56.83
2018-04-14T22:25:58.744Z,56.87
2018-04-14T22:28:27.767Z,56.59
2018-04-14T22:30:56.045Z,56.85
2018-04-14T22:33:25.088Z,57.00
2018-04-14T22:35:53.349Z,56.98
2018-04-14T22:38:21.662Z,56.76
2018-04-14T22:40:49.928Z,56.73
2018-04-14T22:43:18.192Z,56.70
2018-04-14T22:45:46.486Z,56.86
2018-04-14T22:48:14.757Z,57.02
2018-04-14T22:50:43.035Z,56.75
2018-04-14T22:53:11.322Z,57.00
2018-04-14T22:55:39.599Z,57.08
2018-04-14T22:58:07.853Z,57.43
2018-04-14T23:00:36.160Z,58.10
2018-04-14T23:03:04.419Z,58.13
2018-04-14T23:05:33.439Z,58.32
2018-04-14T23:08:02.483Z,58.66
2018-04-14T23:10:30.751Z,59.66
2018-04-14T23:12:59.885Z,60.97
2018-04-14T23:15:28.186Z,61.90
2018-04-14T23:17:56.443Z,64.03
2018-04-14T23:20:24.741Z,64.74
2018-04-14T23:22:53.037Z,65.85
2018-04-14T23:25:21.309Z,67.01
2018-04-14T23:27:49.584Z,67.80
2018-04-14T23:30:17.860Z,68.45
2018-04-14T23:32:46.945Z,69.00
2018-04-14T23:35:15.200Z,69.81
2018-04-14T23:37:43.488Z,69.72
2018-04-14T23:40:11.946Z,70.33
2018-04-14T23:42:41.007Z,70.53
2018-04-14T23:45:09.298Z,70.70
2018-04-14T23:47:37.549Z,70.69
2018-04-14T23:50:05.819Z,71.14
2018-04-14T23:52:34.905Z,71.19
2018-04-14T23:55:03.175Z,71.94
2018-04-14T23:57:31.441Z,72.10
2018-04-14T23:59:59.742Z,72.42
